Time;durP1;ratioP1;P1;durP2;ratioP2;P2;SDS_P1;SDS_P2;PMS_P1;PMS_P2;Temp;Humidity;BMP_temperature;BMP_pressure;BME280_temperature;BME280_humidity;BME280_pressure;Samples;Min_cycle;Max_cycle;Signal;HPM_P1;HPM_P2
2023/12/23 00:03:00;;;;;;;23.87;15.85;;;;;;;10.06;61.41;97388.77;1770452;81;21324;-83
2023/12/23 00:06:05;;;;;;;20.00;14.73;;;;;;;9.99;61.56;97392.48;1770492;81;21704;-82
2023/12/23 00:09:15;;;;;;;20.88;14.63;;;;;;;9.97;61.75;97394.64;1770127;81;21843;-82
2023/12/23 00:12:19;;;;;;;25.88;16.45;;;;;;;9.95;61.77;97399.50;1770330;81;21291;-82
2023/12/23 00:15:25;;;;;;;25.57;16.55;;;;;;;9.85;62.14;97408.86;1738224;82;21248;-83
2023/12/23 00:18:30;;;;;;;21.82;14.68;;;;;;;9.94;62.09;97401.95;1737948;82;21328;-83
2023/12/23 00:21:36;;;;;;;23.47;15.18;;;;;;;9.46;62.90;97393.59;1738401;82;21264;-82
2023/12/23 00:24:42;;;;;;;22.13;14.65;;;;;;;9.85;61.82;97384.30;1738610;82;21891;-82
2023/12/23 00:27:48;;;;;;;21.20;14.60;;;;;;;9.87;61.10;97378.04;1736960;81;21649;-82
2023/12/23 00:30:54;;;;;;;20.77;14.38;;;;;;;9.34;62.58;97375.04;1739973;82;21276;-82
2023/12/23 00:33:59;;;;;;;24.75;15.72;;;;;;;9.13;63.17;97386.58;1739736;82;21320;-82
2023/12/23 00:37:05;;;;;;;22.45;14.98;;;;;;;8.98;63.65;97379.39;1739900;82;21299;-82
2023/12/23 00:40:10;;;;;;;23.35;14.93;;;;;;;9.09;63.30;97371.23;1739617;82;21263;-82
2023/12/23 00:43:17;;;;;;;23.42;14.10;;;;;;;9.03;63.22;97380.33;1737036;81;21308;-82
2023/12/23 00:46:22;;;;;;;21.20;14.20;;;;;;;9.05;63.35;97380.94;1738936;82;21315;-82
2023/12/23 00:49:27;;;;;;;19.67;13.48;;;;;;;8.97;63.27;97392.20;1737741;82;21328;-82
2023/12/23 00:52:33;;;;;;;19.15;13.05;;;;;;;9.11;63.14;97399.07;1739189;82;21311;-82
2023/12/23 00:55:39;;;;;;;20.05;13.45;;;;;;;8.87;63.66;97389.23;1737654;82;21300;-82
2023/12/23 00:58:46;;;;;;;19.10;12.43;;;;;;;8.79;63.67;97390.94;1747032;81;21280;-82
2023/12/23 01:01:51;;;;;;;17.12;12.05;;;;;;;8.70;63.80;97394.54;1759384;81;21292;-82
2023/12/23 01:04:57;;;;;;;16.82;12.05;;;;;;;8.74;63.87;97391.64;1757912;81;21324;-82
2023/12/23 01:08:03;;;;;;;18.10;12.37;;;;;;;8.84;63.73;97387.80;1758167;81;21319;-82
2023/12/23 01:11:09;;;;;;;19.25;12.70;;;;;;;9.03;63.01;97400.78;1759475;81;21315;-82
2023/12/23 01:14:15;;;;;;;17.82;12.50;;;;;;;9.04;62.52;97401.64;1740270;81;21862;-82
2023/12/23 01:17:21;;;;;;;16.20;11.57;;;;;;;8.83;63.20;97397.05;1730140;83;21407;-83
2023/12/23 01:20:28;;;;;;;17.73;12.00;;;;;;;8.87;63.07;97402.33;1737570;82;21318;-82
2023/12/23 01:23:34;;;;;;;15.35;10.55;;;;;;;8.83;63.22;97397.59;1743334;82;21778;-82
2023/12/23 01:26:40;;;;;;;17.73;11.15;;;;;;;9.06;62.26;97396.77;1743140;82;21334;-82
2023/12/23 01:29:48;;;;;;;14.18;10.10;;;;;;;8.91;62.72;97397.24;1743114;82;21639;-83
2023/12/23 01:32:55;;;;;;;17.12;9.75;;;;;;;8.89;62.28;97409.75;1744405;82;21295;-82
2023/12/23 01:36:05;;;;;;;15.13;9.90;;;;;;;8.88;62.30;97403.98;1744469;82;21295;-82
2023/12/23 01:39:09;;;;;;;14.20;10.30;;;;;;;8.72;62.59;97403.33;1744460;82;21875;-83
2023/12/23 01:42:16;;;;;;;15.18;10.78;;;;;;;8.48;63.11;97402.45;1744447;82;21878;-82
2023/12/23 01:45:22;;;;;;;15.88;10.35;;;;;;;8.48;63.30;97411.17;1767709;81;21280;-82
2023/12/23 01:48:27;;;;;;;15.35;9.85;;;;;;;8.48;63.30;97405.72;1773059;81;21838;-82
2023/12/23 01:51:33;;;;;;;16.95;10.43;;;;;;;8.18;64.01;97411.44;1772562;81;21650;-83
2023/12/23 01:54:39;;;;;;;15.75;10.30;;;;;;;8.48;63.30;97416.61;1772719;81;21288;-82
2023/12/23 01:57:46;;;;;;;13.20;9.80;;;;;;;8.51;62.73;97419.68;1772739;81;21996;-82
2023/12/23 02:00:52;;;;;;;14.20;10.15;;;;;;;8.58;62.61;97419.59;1769009;81;21296;-82
2023/12/23 02:03:58;;;;;;;14.45;10.05;;;;;;;8.66;62.55;97420.09;1773988;81;21322;-82
2023/12/23 02:07:06;;;;;;;21.30;9.03;;;;;;;8.85;62.00;97419.47;1774213;81;21264;-82
2023/12/23 02:10:13;;;;;;;15.03;10.25;;;;;;;8.91;61.57;97419.88;1772818;81;21283;-83
2023/12/23 02:13:35;;;;;;;15.48;10.18;;;;;;;8.74;61.83;97421.62;1773926;80;22737;-82
2023/12/23 02:16:42;;;;;;;13.80;9.40;;;;;;;8.99;61.13;97421.44;1774331;81;21864;-82
2023/12/23 02:19:48;;;;;;;13.20;9.50;;;;;;;8.86;61.01;97422.48;1774880;81;21862;-82
2023/12/23 02:22:54;;;;;;;14.00;9.68;;;;;;;8.67;61.66;97408.13;1775435;81;21315;-82
2023/12/23 02:26:03;;;;;;;15.80;9.95;;;;;;;8.61;61.98;97402.76;1775213;81;21323;-83
2023/12/23 02:29:10;;;;;;;14.13;9.53;;;;;;;8.57;61.96;97397.51;1774186;81;21307;-83
2023/12/23 02:32:17;;;;;;;13.53;9.70;;;;;;;8.67;61.52;97400.48;1775472;81;21272;-82
2023/12/23 02:35:16;;;;;;;13.95;9.18;;;;;;;8.66;61.29;97403.74;1773844;81;21319;-82
2023/12/23 02:38:22;;;;;;;14.35;8.73;;;;;;;8.91;60.55;97407.61;1773648;81;21312;-82
2023/12/23 02:41:28;;;;;;;13.22;9.35;;;;;;;8.76;60.86;97424.96;1775174;80;21601;-82
2023/12/23 02:44:33;;;;;;;13.35;8.85;;;;;;;8.26;62.32;97438.05;1769505;81;21280;-82
2023/12/23 02:47:39;;;;;;;13.25;8.70;;;;;;;8.53;61.58;97441.26;1775265;81;21854;-82
2023/12/23 02:50:46;;;;;;;12.40;8.45;;;;;;;8.76;60.49;97444.04;1774375;81;21339;-82
2023/12/23 02:53:50;;;;;;;13.58;8.90;;;;;;;8.48;61.02;97441.13;1775294;80;21299;-83
2023/12/23 02:56:57;;;;;;;15.88;9.23;;;;;;;8.64;60.69;97444.00;1775376;81;21312;-82
2023/12/23 03:00:03;;;;;;;13.83;8.78;;;;;;;8.61;60.86;97438.18;1775398;81;21283;-82
2023/12/23 03:03:08;;;;;;;15.55;10.00;;;;;;;8.52;60.83;97445.05;1774037;81;21922;-82
2023/12/23 03:06:17;;;;;;;16.35;9.70;;;;;;;8.57;60.68;97440.56;1774194;81;21335;-82
2023/12/23 03:09:20;;;;;;;14.15;8.55;;;;;;;8.54;60.52;97437.47;1774331;81;21308;-82
2023/12/23 03:12:27;;;;;;;13.98;8.58;;;;;;;8.39;60.95;97436.01;1775152;81;21311;-82
2023/12/23 03:15:33;;;;;;;14.60;8.43;;;;;;;8.52;60.50;97440.44;1744371;82;21295;-82
2023/12/23 03:18:42;;;;;;;18.85;9.23;;;;;;;8.40;60.47;97444.47;1743982;82;21382;-82
2023/12/23 03:21:54;;;;;;;13.93;8.55;;;;;;;8.52;60.12;97443.16;1687089;84;21877;-82
2023/12/23 03:25:00;;;;;;;15.68;8.95;;;;;;;8.58;59.92;97448.20;1711125;84;21884;-82
2023/12/23 03:28:05;;;;;;;18.98;9.38;;;;;;;8.52;59.91;97455.95;1709388;84;21318;-82
2023/12/23 03:31:11;;;;;;;17.50;8.95;;;;;;;8.31;60.19;97458.62;1690994;85;21327;-82
2023/12/23 03:34:18;;;;;;;14.53;9.05;;;;;;;8.57;60.00;97449.27;1689765;85;21326;-82
2023/12/23 03:37:24;;;;;;;14.98;8.98;;;;;;;8.36;60.61;97455.52;1689601;85;21335;-82
2023/12/23 03:40:30;;;;;;;15.25;8.83;;;;;;;8.00;61.39;97454.20;1689566;85;21342;-82
2023/12/23 03:43:36;;;;;;;14.73;8.38;;;;;;;7.91;61.90;97446.38;1691199;83;21969;-82
2023/12/23 03:46:41;;;;;;;19.15;10.00;;;;;;;7.77;62.22;97450.33;1718503;83;21307;-82
2023/12/23 03:49:46;;;;;;;15.25;8.75;;;;;;;7.66;62.65;97455.14;1717664;83;21870;-83
2023/12/23 03:52:52;;;;;;;17.90;9.18;;;;;;;7.50;62.91;97461.20;1716975;83;21354;-82
2023/12/23 03:55:59;;;;;;;16.42;9.35;;;;;;;7.68;62.50;97465.29;1718629;83;22004;-82
2023/12/23 03:59:06;;;;;;;17.77;10.08;;;;;;;7.76;62.26;97466.86;1726639;83;21339;-82
2023/12/23 04:02:12;;;;;;;19.87;10.00;;;;;;;8.04;61.36;97471.21;1732740;83;21898;-82
2023/12/23 04:05:17;;;;;;;20.10;10.23;;;;;;;8.15;60.92;97467.73;1731398;83;21339;-82
2023/12/23 04:08:24;;;;;;;21.10;9.83;;;;;;;8.25;60.75;97467.19;1732340;83;21329;-82
2023/12/23 04:11:29;;;;;;;18.73;11.10;;;;;;;8.21;60.72;97468.70;1740559;82;21936;-82
2023/12/23 04:14:37;;;;;;;16.27;9.80;;;;;;;8.10;60.67;97464.05;1724460;83;21301;-82
2023/12/23 04:17:42;;;;;;;14.38;10.03;;;;;;;8.25;60.45;97466.36;1740660;82;21892;-82
2023/12/23 04:20:49;;;;;;;16.75;9.98;;;;;;;8.12;60.63;97470.91;1723118;83;21340;-82
2023/12/23 04:23:54;;;;;;;15.20;9.58;;;;;;;8.12;60.39;97472.80;1739422;82;21359;-82
2023/12/23 04:27:00;;;;;;;21.45;10.45;;;;;;;8.34;59.56;97479.42;1723786;83;21348;-82
2023/12/23 04:30:05;;;;;;;18.20;9.73;;;;;;;8.06;60.08;97492.78;1694929;84;21316;-82
2023/12/23 04:33:13;;;;;;;16.50;9.58;;;;;;;8.24;59.63;97488.67;1694198;84;21305;-82
2023/12/23 04:36:24;;;;;;;21.05;11.63;;;;;;;8.56;58.45;97496.13;1695566;84;21706;-82
2023/12/23 04:39:30;;;;;;;23.32;13.13;;;;;;;8.65;58.08;97497.96;1701982;84;21343;-82
2023/12/23 04:42:36;;;;;;;31.17;16.00;;;;;;;8.48;58.05;97502.42;1703182;84;21327;-82
2023/12/23 04:45:41;;;;;;;25.25;10.80;;;;;;;8.27;58.40;97495.00;1717390;83;21283;-82
2023/12/23 04:48:47;;;;;;;21.12;10.55;;;;;;;8.12;58.66;97498.12;1718536;83;21312;-82
2023/12/23 04:51:53;;;;;;;21.60;9.83;;;;;;;8.19;58.47;97495.34;1718281;83;21898;-82
2023/12/23 04:55:05;;;;;;;24.25;10.95;;;;;;;8.26;58.17;97489.80;1718568;83;21319;-82
2023/12/23 04:58:10;;;;;;;22.07;11.20;;;;;;;8.32;57.98;97486.97;1720284;83;21875;-82
2023/12/23 05:01:15;;;;;;;20.62;11.15;;;;;;;8.37;57.56;97494.48;1731160;83;21330;-82
2023/12/23 05:04:22;;;;;;;22.45;11.20;;;;;;;8.60;56.96;97491.02;1732625;83;21312;-82
2023/12/23 05:07:27;;;;;;;19.12;11.30;;;;;;;8.42;57.06;97479.13;1731124;83;22005;-82
2023/12/23 05:10:32;;;;;;;25.32;12.20;;;;;;;8.45;57.04;97482.73;1731981;83;21882;-82
2023/12/23 05:13:37;;;;;;;24.52;13.95;;;;;;;8.11;58.02;97471.97;1732511;83;21883;-82
2023/12/23 05:16:43;;;;;;;20.88;12.47;;;;;;;7.76;58.86;97470.94;1732512;83;21327;-82
2023/12/23 05:19:48;;;;;;;27.07;16.60;;;;;;;7.83;59.16;97481.23;1725294;83;21331;-82
2023/12/23 05:22:54;;;;;;;31.07;18.23;;;;;;;7.94;58.66;97482.64;1723464;83;21339;-82
2023/12/23 05:26:00;;;;;;;30.88;16.85;;;;;;;7.81;59.06;97479.25;1741030;81;21311;-82
2023/12/23 05:29:06;;;;;;;36.98;18.30;;;;;;;8.02;58.49;97484.23;1745772;82;21287;-82
2023/12/23 05:32:11;;;;;;;24.30;15.18;;;;;;;8.11;58.35;97477.95;1744985;82;21299;-82
2023/12/23 05:35:17;;;;;;;22.65;14.10;;;;;;;7.81;59.08;97474.66;1745140;82;21311;-83
2023/12/23 05:38:23;;;;;;;22.17;14.60;;;;;;;7.91;59.22;97486.37;1743729;82;21350;-82
2023/12/23 05:41:28;;;;;;;28.95;14.25;;;;;;;8.14;58.78;97490.58;1743458;82;21358;-82
2023/12/23 05:44:34;;;;;;;24.07;12.90;;;;;;;8.18;58.29;97499.10;1731217;82;21303;-82
2023/12/23 05:47:42;;;;;;;20.70;11.95;;;;;;;8.10;58.12;97495.35;1715593;83;21346;-82
2023/12/23 05:50:49;;;;;;;22.55;12.75;;;;;;;7.88;58.25;97494.98;1715642;83;21318;-83
2023/12/23 05:53:55;;;;;;;21.00;12.73;;;;;;;7.92;58.20;97503.00;1715143;83;21382;-82
2023/12/23 05:57:02;;;;;;;22.05;11.75;;;;;;;7.70;58.64;97499.89;1715948;83;21306;-83
2023/12/23 06:00:09;;;;;;;21.12;10.68;;;;;;;7.62;59.25;97487.94;1714339;83;21677;-82
2023/12/23 06:03:14;;;;;;;22.30;12.50;;;;;;;7.49;59.55;97494.91;1714154;83;22242;-82
2023/12/23 06:06:20;;;;;;;17.95;11.20;;;;;;;7.59;59.38;97492.48;1715552;83;21328;-82
2023/12/23 06:09:27;;;;;;;21.87;11.63;;;;;;;7.66;59.47;97502.75;1714550;83;21364;-82
2023/12/23 06:12:33;;;;;;;21.27;11.10;;;;;;;7.60;59.33;97497.70;1714283;83;21332;-82
2023/12/23 06:15:39;;;;;;;22.58;12.30;;;;;;;7.84;58.89;97490.52;1715350;83;21704;-83
2023/12/23 06:18:45;;;;;;;17.73;11.90;;;;;;;7.57;59.69;97500.86;1714300;83;21308;-82
2023/12/23 06:21:52;;;;;;;23.47;12.55;;;;;;;7.67;59.71;97499.83;1714266;83;21352;-82
2023/12/23 06:24:58;;;;;;;22.75;13.03;;;;;;;7.65;59.69;97500.56;1714301;83;21359;-82
2023/12/23 06:28:03;;;;;;;24.85;12.58;;;;;;;7.67;59.66;97504.44;1691533;84;21302;-82
2023/12/23 06:31:02;;;;;;;25.57;12.35;;;;;;;7.79;59.45;97507.23;1731847;82;21350;-82
2023/12/23 06:34:08;;;;;;;28.07;13.30;;;;;;;7.80;59.37;97512.44;1729419;81;21299;-82
2023/12/23 06:37:13;;;;;;;21.12;11.57;;;;;;;7.89;59.32;97508.35;1727234;83;21318;-83
2023/12/23 06:40:20;;;;;;;27.93;13.32;;;;;;;7.99;59.26;97515.16;1726600;83;21339;-82
2023/12/23 06:43:25;;;;;;;23.00;13.65;;;;;;;8.20;58.79;97516.06;1728451;83;21296;-82
2023/12/23 06:46:32;;;;;;;26.77;13.75;;;;;;;8.30;58.64;97529.95;1737781;82;21284;-82
2023/12/23 06:49:39;;;;;;;26.30;13.03;;;;;;;8.56;58.00;97536.12;1759475;81;21268;-82
2023/12/23 06:52:46;;;;;;;27.17;13.60;;;;;;;8.74;57.37;97532.00;1767412;81;21283;-82
2023/12/23 06:55:53;;;;;;;26.93;12.98;;;;;;;8.41;58.24;97526.48;1767291;81;21347;-82
2023/12/23 06:59:01;;;;;;;23.38;12.05;;;;;;;8.73;57.54;97531.70;1768385;81;21283;-82
2023/12/23 07:02:07;;;;;;;26.90;13.13;;;;;;;8.73;57.49;97535.79;1768020;81;22620;-82
2023/12/23 07:05:14;;;;;;;22.93;13.62;;;;;;;8.65;57.42;97538.30;1768468;81;21854;-82
2023/12/23 07:08:20;;;;;;;22.02;11.50;;;;;;;8.53;57.46;97546.14;1768176;81;21291;-83
2023/12/23 07:11:26;;;;;;;28.15;12.70;;;;;;;8.58;57.31;97541.66;1766817;81;21878;-82
2023/12/23 07:14:32;;;;;;;25.35;12.70;;;;;;;8.49;57.70;97557.20;1768635;81;21974;-83
2023/12/23 07:17:30;;;;;;;25.85;12.78;;;;;;;8.53;57.52;97557.88;1767239;81;21946;-82
2023/12/23 07:20:25;;;;;;;29.05;12.68;;;;;;;8.71;57.04;97557.00;1768696;81;21312;-82
2023/12/23 07:23:31;;;;;;;27.05;14.15;;;;;;;8.68;57.11;97559.64;1768680;81;21891;-82
2023/12/23 07:26:37;;;;;;;28.27;12.23;;;;;;;8.76;56.43;97555.78;1770743;80;21311;-82
2023/12/23 07:29:49;;;;;;;21.68;11.43;;;;;;;9.00;56.39;97547.67;1783327;80;21953;-82
2023/12/23 07:32:56;;;;;;;22.25;11.57;;;;;;;8.87;56.96;97550.88;1782010;80;21299;-82
2023/12/23 07:36:02;;;;;;;23.60;12.28;;;;;;;8.90;56.98;97549.06;1782043;80;21949;-82
2023/12/23 07:39:08;;;;;;;23.85;12.53;;;;;;;9.41;55.75;97564.00;1781746;80;22150;-82
2023/12/23 07:42:15;;;;;;;22.15;11.08;;;;;;;9.24;56.18;97565.73;1781912;80;21311;-82
2023/12/23 07:45:23;;;;;;;21.82;10.30;;;;;;;9.19;56.44;97564.25;1781996;80;22648;-82
2023/12/23 07:48:28;;;;;;;18.27;11.22;;;;;;;9.17;56.58;97565.00;1781246;80;22473;-82
2023/12/23 07:51:34;;;;;;;24.05;11.18;;;;;;;9.19;56.38;97568.34;1781761;80;21845;-83
2023/12/23 07:54:40;;;;;;;23.85;9.75;;;;;;;9.21;56.19;97568.92;1781599;80;21283;-83
2023/12/23 07:57:47;;;;;;;20.12;9.98;;;;;;;9.30;55.62;97555.25;1781795;80;21307;-83
2023/12/23 08:00:53;;;;;;;20.32;9.80;;;;;;;9.26;55.64;97551.86;1783333;80;21280;-82
2023/12/23 08:04:00;;;;;;;16.02;7.22;;;;;;;9.29;55.17;97563.14;1782350;80;21633;-82
2023/12/23 08:07:07;;;;;;;20.17;7.85;;;;;;;9.13;55.06;97566.56;1783499;80;21901;-82
2023/12/23 08:10:16;;;;;;;16.05;7.83;;;;;;;8.78;56.04;97572.72;1781946;80;21295;-82
2023/12/23 08:13:23;;;;;;;18.80;7.50;;;;;;;8.80;55.93;97569.75;1782244;80;22189;-82
2023/12/23 08:16:29;;;;;;;25.05;8.28;;;;;;;8.75;55.60;97578.65;1782148;80;21390;-82
2023/12/23 08:19:34;;;;;;;20.92;7.03;;;;;;;8.67;55.63;97586.60;1784076;80;21268;-82
2023/12/23 08:22:41;;;;;;;14.23;7.20;;;;;;;8.77;55.39;97582.50;1783970;80;21279;-82
2023/12/23 08:25:47;;;;;;;16.45;7.15;;;;;;;9.03;54.75;97581.27;1783969;80;21263;-82
2023/12/23 08:28:52;;;;;;;17.82;7.47;;;;;;;9.06;54.42;97578.09;1774106;80;21289;-83
2023/12/23 08:31:58;;;;;;;17.42;7.20;;;;;;;9.05;54.68;97572.34;1770481;81;21244;-83
2023/12/23 08:35:04;;;;;;;15.18;7.03;;;;;;;9.10;54.35;97576.02;1770616;81;21252;-82
2023/12/23 08:38:10;;;;;;;14.28;6.75;;;;;;;9.23;54.16;97570.91;1770646;81;21271;-82
2023/12/23 08:41:17;;;;;;;16.90;7.47;;;;;;;9.24;53.91;97575.28;1768126;81;21879;-82
2023/12/23 08:44:23;;;;;;;14.93;7.78;;;;;;;9.37;53.75;97574.25;1765136;81;21319;-82
2023/12/23 08:47:30;;;;;;;21.68;6.33;;;;;;;9.28;53.56;97577.02;1769584;81;21303;-82
2023/12/23 08:50:36;;;;;;;12.68;6.05;;;;;;;9.58;53.13;97567.38;1769567;81;21284;-82
2023/12/23 08:53:43;;;;;;;20.05;7.42;;;;;;;9.15;53.88;97570.70;1768841;81;21311;-82
2023/12/23 08:56:49;;;;;;;15.60;7.10;;;;;;;9.22;53.80;97567.85;1770307;81;21303;-82
2023/12/23 08:59:54;;;;;;;19.25;7.70;;;;;;;9.02;53.89;97565.98;1770348;81;21279;-82
2023/12/23 09:03:00;;;;;;;12.60;5.75;;;;;;;9.04;54.18;97565.23;1770420;81;21248;-83
2023/12/23 09:06:06;;;;;;;16.80;6.50;;;;;;;9.17;54.18;97562.27;1770667;81;21827;-82
2023/12/23 09:09:13;;;;;;;12.98;6.78;;;;;;;9.31;53.59;97556.90;1770513;81;21264;-82
2023/12/23 09:12:19;;;;;;;16.45;6.55;;;;;;;9.05;54.44;97564.16;1770184;81;21301;-83
2023/12/23 09:15:26;;;;;;;14.75;6.65;;;;;;;9.24;53.87;97567.10;1770425;81;21792;-82
2023/12/23 09:18:31;;;;;;;16.67;6.45;;;;;;;9.26;53.45;97564.13;1770307;81;21276;-82
2023/12/23 09:21:38;;;;;;;16.12;7.30;;;;;;;8.11;56.57;97561.81;1770213;81;21268;-83
2023/12/23 09:24:45;;;;;;;11.63;6.70;;;;;;;9.24;54.08;97556.73;1769903;81;21327;-83
2023/12/23 09:27:51;;;;;;;20.65;6.47;;;;;;;9.35;53.92;97561.36;1766320;81;21327;-83
2023/12/23 09:30:56;;;;;;;12.88;6.42;;;;;;;9.48;53.71;97568.80;1743469;82;22682;-82
2023/12/23 09:34:02;;;;;;;12.30;5.83;;;;;;;9.58;53.65;97571.47;1744352;82;21312;-82
2023/12/23 09:37:08;;;;;;;13.60;5.90;;;;;;;9.85;53.34;97563.11;1744711;82;21294;-82
2023/12/23 09:40:16;;;;;;;13.38;5.75;;;;;;;9.76;53.62;97576.82;1743443;82;21288;-82
2023/12/23 09:43:23;;;;;;;9.05;4.50;;;;;;;9.83;53.73;97574.78;1743428;82;22288;-82
2023/12/23 09:46:30;;;;;;;8.38;4.42;;;;;;;9.91;53.51;97566.78;1744761;82;21284;-82
2023/12/23 09:49:36;;;;;;;11.28;5.12;;;;;;;9.85;53.05;97578.66;1744621;82;22484;-82
2023/12/23 09:52:43;;;;;;;12.75;5.40;;;;;;;9.96;53.11;97570.98;1744602;82;21882;-82
2023/12/23 09:55:49;;;;;;;9.78;5.03;;;;;;;10.18;52.78;97570.67;1743163;82;21332;-82
2023/12/23 09:58:56;;;;;;;8.75;4.03;;;;;;;10.11;52.34;97580.05;1751491;81;21629;-83
2023/12/23 10:02:02;;;;;;;12.05;4.95;;;;;;;10.40;51.47;97580.47;1760049;81;21323;-82
2023/12/23 10:05:08;;;;;;;10.90;4.67;;;;;;;10.42;51.30;97580.21;1759475;81;21870;-83
2023/12/23 10:08:15;;;;;;;16.35;5.90;;;;;;;10.29;51.32;97573.64;1760330;81;21882;-82
2023/12/23 10:11:24;;;;;;;10.13;5.47;;;;;;;10.18;51.41;97574.77;1759012;81;21308;-82
2023/12/23 10:14:31;;;;;;;11.50;5.05;;;;;;;10.18;51.40;97572.03;1746901;81;21338;-82
2023/12/23 10:17:40;;;;;;;14.80;5.58;;;;;;;9.98;52.04;97568.33;1743315;82;21283;-82
2023/12/23 10:20:47;;;;;;;14.70;5.75;;;;;;;10.15;51.96;97568.94;1743539;82;21315;-82
2023/12/23 10:23:54;;;;;;;11.28;5.20;;;;;;;9.94;52.95;97571.77;1729216;81;21269;-83
2023/12/23 10:26:59;;;;;;;11.08;4.62;;;;;;;10.32;52.51;97571.80;1742431;82;21352;-82
2023/12/23 10:30:05;;;;;;;9.58;4.47;;;;;;;10.48;52.15;97562.30;1744248;81;21350;-82
2023/12/23 10:33:13;;;;;;;12.15;5.03;;;;;;;10.30;52.02;97566.56;1751380;82;21334;-83
2023/12/23 10:36:19;;;;;;;10.20;4.80;;;;;;;10.36;52.07;97562.89;1714423;83;21290;-82
2023/12/23 10:39:31;;;;;;;17.60;4.42;;;;;;;10.70;51.34;97552.08;1715624;83;21302;-83
2023/12/23 10:42:30;;;;;;;10.68;3.98;;;;;;;10.48;51.54;97549.17;1696198;84;21328;-83
2023/12/23 10:45:23;;;;;;;10.63;4.28;;;;;;;10.51;51.40;97556.07;1711077;83;21319;-83
2023/12/23 10:48:30;;;;;;;12.53;4.70;;;;;;;10.57;51.25;97553.18;1725689;83;21331;-82
2023/12/23 10:51:36;;;;;;;9.55;3.80;;;;;;;10.67;50.42;97549.28;1745793;82;21307;-82
2023/12/23 10:54:43;;;;;;;10.63;4.05;;;;;;;10.70;49.85;97549.34;1744827;82;21306;-83
2023/12/23 10:57:49;;;;;;;9.05;3.98;;;;;;;10.67;49.42;97553.38;1729675;82;21304;-82
2023/12/23 11:00:54;;;;;;;8.13;3.55;;;;;;;10.62;49.16;97551.91;1747306;82;21850;-82
2023/12/23 11:04:01;;;;;;;12.43;3.90;;;;;;;10.59;49.37;97557.89;1728583;83;21886;-82
2023/12/23 11:07:07;;;;;;;9.70;3.65;;;;;;;10.81;48.86;97553.91;1747004;82;21314;-82
2023/12/23 11:10:13;;;;;;;10.85;3.67;;;;;;;10.97;48.75;97552.31;1728249;83;21280;-82
2023/12/23 11:13:19;;;;;;;10.25;4.05;;;;;;;10.68;49.35;97547.37;1746920;82;21303;-83
2023/12/23 11:16:25;;;;;;;11.85;3.58;;;;;;;10.48;49.75;97550.00;1728208;83;21301;-82
2023/12/23 11:19:31;;;;;;;12.63;4.20;;;;;;;10.47;49.95;97548.34;1746919;82;21263;-82
2023/12/23 11:22:37;;;;;;;9.95;4.15;;;;;;;10.41;50.02;97548.50;1728444;83;21312;-82
2023/12/23 11:25:49;;;;;;;6.50;3.45;;;;;;;10.28;49.95;97545.50;1747073;82;21299;-82
2023/12/23 11:28:55;;;;;;;9.80;3.50;;;;;;;10.23;49.39;97545.36;1728440;83;21308;-82
2023/12/23 11:32:18;;;;;;;9.03;4.33;;;;;;;10.41;48.82;97545.23;1743372;82;21322;-82
2023/12/23 11:35:25;;;;;;;6.72;3.15;;;;;;;10.54;48.25;97553.69;1725315;83;21272;-82
2023/12/23 11:38:36;;;;;;;8.23;3.62;;;;;;;10.53;48.46;97553.91;1741380;82;21285;-82
2023/12/23 11:41:41;;;;;;;8.73;4.45;;;;;;;10.37;48.80;97551.41;1725112;83;21843;-82
2023/12/23 11:44:47;;;;;;;9.25;4.40;;;;;;;10.30;49.04;97557.00;1725295;82;21330;-82
2023/12/23 11:47:54;;;;;;;12.78;4.90;;;;;;;10.24;49.41;97556.61;1696341;84;21271;-82
2023/12/23 11:51:03;;;;;;;7.83;5.17;;;;;;;10.14;49.78;97557.19;1704168;84;21345;-82
2023/12/23 11:54:08;;;;;;;10.95;5.50;;;;;;;10.11;50.13;97558.20;1704326;84;21338;-82
2023/12/23 11:57:13;;;;;;;11.70;5.90;;;;;;;9.99;50.47;97558.23;1704326;84;21703;-82
2023/12/23 12:00:20;;;;;;;15.28;5.65;;;;;;;10.03;50.73;97553.95;1704000;84;21336;-82
2023/12/23 12:03:26;;;;;;;12.15;5.35;;;;;;;10.04;50.90;97553.41;1703932;84;21803;-82
2023/12/23 12:06:32;;;;;;;11.30;5.20;;;;;;;10.12;50.79;97553.05;1703995;84;21863;-82
2023/12/23 12:09:39;;;;;;;10.15;5.20;;;;;;;9.98;51.08;97560.14;1703977;84;21331;-82
2023/12/23 12:12:46;;;;;;;15.08;5.87;;;;;;;10.07;50.80;97551.55;1704460;83;21859;-82
2023/12/23 12:15:52;;;;;;;10.50;4.90;;;;;;;9.81;51.33;97554.27;1716458;83;21890;-82
2023/12/23 12:18:57;;;;;;;8.45;4.15;;;;;;;9.82;51.51;97555.38;1716678;83;21300;-82
2023/12/23 12:22:04;;;;;;;12.65;5.12;;;;;;;9.94;51.31;97554.02;1716540;83;21263;-82
2023/12/23 12:25:12;;;;;;;10.88;3.77;;;;;;;10.05;51.25;97552.34;1716738;83;21303;-82
2023/12/23 12:28:18;;;;;;;11.08;4.00;;;;;;;10.13;51.02;97554.71;1710037;83;21303;-82
2023/12/23 12:31:23;;;;;;;12.85;4.35;;;;;;;10.14;50.82;97556.36;1744509;82;21350;-82
2023/12/23 12:34:30;;;;;;;12.95;4.10;;;;;;;9.89;51.41;97558.84;1692471;84;21637;-82
2023/12/23 12:37:36;;;;;;;10.78;4.35;;;;;;;9.87;51.38;97562.32;1712402;84;21275;-82
2023/12/23 12:40:44;;;;;;;12.80;4.42;;;;;;;10.02;51.25;97553.66;1712250;84;21303;-83
2023/12/23 12:43:52;;;;;;;12.03;4.62;;;;;;;10.20;51.11;97554.03;1721592;82;21239;-82
2023/12/23 12:47:02;;;;;;;9.88;4.33;;;;;;;10.31;51.03;97555.95;1707984;84;21318;-83
2023/12/23 12:50:08;;;;;;;13.43;4.92;;;;;;;10.33;51.04;97554.34;1682735;85;21312;-82
2023/12/23 12:53:14;;;;;;;7.45;4.22;;;;;;;10.45;50.94;97549.68;1682743;85;21922;-83
2023/12/23 12:56:23;;;;;;;11.20;4.72;;;;;;;10.64;50.63;97551.69;1708238;84;21829;-82
2023/12/23 12:59:30;;;;;;;8.58;5.15;;;;;;;10.67;50.52;97548.45;1687625;84;21305;-82
2023/12/23 13:02:35;;;;;;;9.20;4.50;;;;;;;10.72;50.29;97541.71;1657043;86;21296;-82
2023/12/23 13:05:43;;;;;;;11.00;4.37;;;;;;;10.95;49.98;97547.07;1643578;86;21752;-82
2023/12/23 13:08:48;;;;;;;10.98;4.92;;;;;;;11.06;49.76;97543.17;1664180;86;21296;-83
2023/12/23 13:11:54;;;;;;;11.78;5.05;;;;;;;10.77;50.22;97540.44;1664095;86;21311;-82
2023/12/23 13:14:58;;;;;;;12.28;4.75;;;;;;;10.72;50.35;97539.80;1690880;85;21304;-82
2023/12/23 13:18:04;;;;;;;13.50;5.10;;;;;;;10.64;50.63;97547.59;1691103;85;21858;-82
2023/12/23 13:21:11;;;;;;;14.07;5.30;;;;;;;10.41;51.29;97549.86;1692027;85;21284;-83
2023/12/23 13:24:15;;;;;;;10.53;5.03;;;;;;;10.42;51.33;97543.32;1692130;85;21272;-82
2023/12/23 13:27:21;;;;;;;19.92;10.23;;;;;;;10.41;51.44;97546.59;1692248;85;21371;-82
2023/12/23 13:30:26;;;;;;;17.65;6.87;;;;;;;10.54;51.20;97546.00;1692157;85;21283;-82
2023/12/23 13:33:32;;;;;;;13.90;5.80;;;;;;;10.51;51.31;97545.97;1700020;83;21317;-82
2023/12/23 13:36:38;;;;;;;17.15;6.58;;;;;;;10.80;50.82;97545.43;1725353;83;21282;-82
2023/12/23 13:39:45;;;;;;;12.63;4.97;;;;;;;10.71;50.82;97544.16;1733510;82;21275;-82
2023/12/23 13:42:52;;;;;;;9.98;5.05;;;;;;;10.40;51.49;97544.11;1767687;81;21264;-82
2023/12/23 13:45:57;;;;;;;10.60;4.95;;;;;;;10.29;51.58;97540.86;1733351;82;21252;-83
2023/12/23 13:49:04;;;;;;;15.00;5.60;;;;;;;10.31;51.72;97549.13;1733642;82;21878;-82
2023/12/23 13:52:10;;;;;;;13.22;4.95;;;;;;;10.34;51.43;97541.79;1733704;82;21295;-82
2023/12/23 13:55:15;;;;;;;13.70;6.22;;;;;;;10.18;51.64;97537.06;1733612;82;22198;-82
2023/12/23 13:58:20;;;;;;;14.18;5.78;;;;;;;10.03;52.20;97539.47;1730371;83;21248;-82
2023/12/23 14:01:26;;;;;;;14.40;5.70;;;;;;;10.32;51.66;97542.58;1730140;83;21312;-82
2023/12/23 14:04:31;;;;;;;17.50;5.70;;;;;;;10.18;51.91;97542.53;1730275;83;21883;-82
2023/12/23 14:07:37;;;;;;;12.60;5.05;;;;;;;10.24;51.79;97551.14;1729894;83;21682;-82
2023/12/23 14:10:44;;;;;;;5.87;3.75;;;;;;;10.29;51.56;97560.81;1729677;81;21303;-82
2023/12/23 14:13:50;;;;;;;5.72;3.58;;;;;;;10.21;51.54;97562.54;1733083;81;21824;-82
2023/12/23 14:16:56;;;;;;;4.33;3.12;;;;;;;10.21;51.42;97568.00;1738441;82;21288;-82
2023/12/23 14:20:01;;;;;;;6.80;3.60;;;;;;;9.85;51.98;97567.20;1738768;82;21894;-82
2023/12/23 14:23:07;;;;;;;13.13;3.65;;;;;;;9.61;52.36;97568.28;1738784;82;21288;-82
2023/12/23 14:26:13;;;;;;;5.90;3.30;;;;;;;9.58;52.43;97564.11;1738630;81;21337;-82
2023/12/23 14:29:19;;;;;;;6.10;3.40;;;;;;;9.51;52.49;97566.14;1738588;81;21847;-82
2023/12/23 14:32:25;;;;;;;5.58;3.25;;;;;;;9.50;52.26;97571.81;1738858;82;21371;-82